createdAt,value
2023-04-28T00:01:23.990Z,96.62
2023-04-28T00:03:58.818Z,96.00
2023-04-28T00:06:32.183Z,90.89
2023-04-28T00:09:05.199Z,90.74
2023-04-28T00:11:38.053Z,88.05
2023-04-28T00:14:10.874Z,88.82
2023-04-28T00:16:45.184Z,88.89
2023-04-28T00:19:18.254Z,87.36
2023-04-28T00:21:51.227Z,87.62
2023-04-28T00:24:24.201Z,86.51
2023-04-28T00:26:58.410Z,85.81
2023-04-28T00:29:31.245Z,84.21
2023-04-28T00:32:05.457Z,85.36
2023-04-28T00:34:38.470Z,85.08
2023-04-28T00:37:11.553Z,84.58
2023-04-28T00:39:47.275Z,84.02
2023-04-28T00:42:20.562Z,85.55
2023-04-28T00:44:53.435Z,83.48
2023-04-28T00:47:27.652Z,82.35
2023-04-28T00:50:00.743Z,83.43
2023-04-28T00:52:33.781Z,82.07
2023-04-28T00:55:08.991Z,81.11
2023-04-28T00:57:42.529Z,81.70
2023-04-28T01:00:16.232Z,85.03
2023-04-28T01:02:51.239Z,84.13
2023-04-28T01:05:25.292Z,79.76
2023-04-28T01:07:58.404Z,81.61
2023-04-28T01:10:31.620Z,81.42
2023-04-28T01:13:04.393Z,80.96
2023-04-28T01:15:37.292Z,80.34
2023-04-28T01:18:11.517Z,80.20
2023-04-28T01:20:44.559Z,79.98
2023-04-28T01:23:18.158Z,80.36
2023-04-28T01:25:52.699Z,83.05
2023-04-28T01:28:25.703Z,81.00
2023-04-28T01:30:58.552Z,75.31
2023-04-28T01:33:31.314Z,76.01
2023-04-28T01:36:04.402Z,72.74
2023-04-28T01:38:37.683Z,73.72
2023-04-28T01:41:13.290Z,71.02
2023-04-28T01:43:46.277Z,71.38
2023-04-28T01:46:19.502Z,72.31
2023-04-28T01:48:52.330Z,77.77
2023-04-28T01:51:25.470Z,79.90
2023-04-28T01:53:58.480Z,70.42
2023-04-28T01:56:32.891Z,70.05
2023-04-28T01:59:05.729Z,68.88
2023-04-28T02:01:38.812Z,68.04
2023-04-28T02:04:11.748Z,67.71
2023-04-28T02:06:44.671Z,72.33
2023-04-28T02:09:17.663Z,69.14
2023-04-28T02:11:52.536Z,71.39
2023-04-28T02:14:25.378Z,67.32
2023-04-28T02:16:59.441Z,74.33
2023-04-28T02:19:32.581Z,74.51
2023-04-28T02:22:05.417Z,70.10
2023-04-28T02:24:38.724Z,65.90
2023-04-28T02:27:13.700Z,66.43
2023-04-28T02:29:46.775Z,74.73
2023-04-28T02:32:19.660Z,66.62
2023-04-28T02:34:54.170Z,65.38
2023-04-28T02:37:28.097Z,65.63
2023-04-28T02:40:01.395Z,67.92
2023-04-28T02:42:35.870Z,68.57
2023-04-28T02:45:09.274Z,65.01
2023-04-28T02:47:42.206Z,70.26
2023-04-28T02:50:15.221Z,65.83
2023-04-28T02:52:49.188Z,69.53
2023-04-28T02:55:24.338Z,75.34
2023-04-28T02:57:58.968Z,68.92
2023-04-28T03:00:31.923Z,74.03
2023-04-28T03:03:05.287Z,75.03
2023-04-28T03:05:38.222Z,68.37
2023-04-28T03:08:11.522Z,72.22
2023-04-28T03:10:44.635Z,73.78
2023-04-28T03:13:19.073Z,70.44
2023-04-28T03:15:52.585Z,69.91
2023-04-28T03:18:25.531Z,69.16
2023-04-28T03:20:58.665Z,78.94
2023-04-28T03:23:31.667Z,79.18
2023-04-28T03:26:04.917Z,80.10
2023-04-28T03:28:39.400Z,73.00
2023-04-28T03:31:12.211Z,72.94
2023-04-28T03:33:47.168Z,69.82
2023-04-28T03:36:20.008Z,80.03
2023-04-28T03:38:52.681Z,70.40
2023-04-28T03:41:26.231Z,76.25
2023-04-28T03:44:00.645Z,73.42
2023-04-28T03:46:34.752Z,75.54
2023-04-28T03:49:07.630Z,79.50
2023-04-28T03:51:40.424Z,73.47
2023-04-28T03:54:13.713Z,77.33
2023-04-28T03:56:46.917Z,73.99
2023-04-28T03:59:21.200Z,72.47
2023-04-28T04:01:54.030Z,74.37
2023-04-28T04:04:27.328Z,74.12
2023-04-28T04:07:00.711Z,83.95
2023-04-28T04:09:34.462Z,77.50
2023-04-28T04:12:07.909Z,85.49
2023-04-28T04:14:42.306Z,83.95
2023-04-28T04:17:15.157Z,81.85
2023-04-28T04:19:48.080Z,81.08
2023-04-28T04:22:20.852Z,82.99
2023-04-28T04:24:53.617Z,85.26
2023-04-28T04:27:26.722Z,82.00
2023-04-28T04:30:01.427Z,85.05
2023-04-28T04:32:35.035Z,83.66
2023-04-28T04:35:09.537Z,82.19
2023-04-28T04:37:42.313Z,80.46
2023-04-28T04:40:15.324Z,84.60
2023-04-28T04:42:48.765Z,80.26
2023-04-28T04:45:23.187Z,82.72
2023-04-28T04:47:56.869Z,79.32
2023-04-28T04:50:29.942Z,81.23
2023-04-28T04:53:02.813Z,80.76
2023-04-28T04:55:35.831Z,85.71
2023-04-28T04:58:09.004Z,83.71
2023-04-28T05:00:43.736Z,83.00
2023-04-28T05:03:26.814Z,83.38
2023-04-28T05:06:00.469Z,80.40
2023-04-28T05:08:33.524Z,84.02
2023-04-28T05:11:06.685Z,78.93
2023-04-28T05:13:40.670Z,79.10
2023-04-28T05:16:15.060Z,82.92
2023-04-28T05:18:47.807Z,83.47
2023-04-28T05:21:20.703Z,80.68
2023-04-28T05:23:53.913Z,75.98
2023-04-28T05:26:27.389Z,77.84
2023-04-28T05:29:00.429Z,77.04
2023-04-28T05:31:35.024Z,76.41
2023-04-28T05:34:07.975Z,74.69
2023-04-28T05:36:40.989Z,76.75
2023-04-28T05:39:14.068Z,76.47
2023-04-28T05:41:47.177Z,82.37
2023-04-28T05:44:20.422Z,74.25
2023-04-28T05:46:54.799Z,74.39
2023-04-28T05:49:27.991Z,74.29
2023-04-28T05:52:01.015Z,72.23
2023-04-28T05:54:34.666Z,79.70
2023-04-28T05:57:08.236Z,74.01
2023-04-28T05:59:41.105Z,83.86
2023-04-28T06:02:15.336Z,77.32
2023-04-28T06:04:48.673Z,72.27
2023-04-28T06:07:21.667Z,75.35
2023-04-28T06:09:54.509Z,79.90
2023-04-28T06:12:27.895Z,72.36
2023-04-28T06:15:01.419Z,71.14
2023-04-28T06:17:35.640Z,71.08
2023-04-28T06:20:10.800Z,76.17
2023-04-28T06:22:43.776Z,71.16
2023-04-28T06:25:16.657Z,80.58
2023-04-28T06:27:49.805Z,75.64
2023-04-28T06:30:23.535Z,74.81
2023-04-28T06:32:58.742Z,71.75
2023-04-28T06:35:31.747Z,74.77
2023-04-28T06:38:04.840Z,69.73
2023-04-28T06:40:38.139Z,75.28
2023-04-28T06:43:11.227Z,72.98
2023-04-28T06:45:44.250Z,67.07
2023-04-28T06:48:19.708Z,67.31
2023-04-28T06:50:52.877Z,71.33
2023-04-28T06:53:25.658Z,73.60
2023-04-28T06:55:58.793Z,66.78
2023-04-28T06:58:32.150Z,66.26
2023-04-28T07:01:05.934Z,76.24
2023-04-28T07:03:40.779Z,66.31
2023-04-28T07:06:14.072Z,72.56
2023-04-28T07:08:47.023Z,72.62
2023-04-28T07:11:20.057Z,64.91
2023-04-28T07:13:53.334Z,66.47
2023-04-28T07:16:26.987Z,65.79
2023-04-28T07:19:01.540Z,69.66
2023-04-28T07:21:34.676Z,74.13
2023-04-28T07:24:08.107Z,72.27
2023-04-28T07:26:41.235Z,71.31
2023-04-28T07:29:15.598Z,72.09
2023-04-28T07:31:48.676Z,73.26
2023-04-28T07:34:23.098Z,67.58
2023-04-28T07:36:55.927Z,71.47
2023-04-28T07:39:28.805Z,73.11
2023-04-28T07:42:02.686Z,62.24
2023-04-28T07:44:36.057Z,69.38
2023-04-28T07:47:09.711Z,73.15
2023-04-28T07:49:44.037Z,63.24
2023-04-28T07:52:17.421Z,64.22
2023-04-28T07:54:50.311Z,73.01
2023-04-28T07:57:23.203Z,63.73
2023-04-28T07:59:56.567Z,59.92
2023-04-28T08:02:29.665Z,61.30
2023-04-28T08:05:04.497Z,60.23
2023-04-28T08:07:38.202Z,59.82
2023-04-28T08:10:13.706Z,58.04
2023-04-28T08:12:46.752Z,58.08
2023-04-28T08:15:20.118Z,60.79
2023-04-28T08:17:53.225Z,59.58
2023-04-28T08:20:27.425Z,62.32
2023-04-28T08:23:00.979Z,60.41
2023-04-28T08:25:37.052Z,58.26
2023-04-28T08:28:10.364Z,58.27
2023-04-28T08:30:43.295Z,58.53
2023-04-28T08:33:16.468Z,56.39
2023-04-28T08:35:50.734Z,58.25
2023-04-28T08:38:25.230Z,60.61
2023-04-28T08:40:58.151Z,56.69
2023-04-28T08:43:33.693Z,62.38
2023-04-28T08:46:07.079Z,59.60
2023-04-28T08:48:41.284Z,59.08
2023-04-28T08:51:18.054Z,55.20
2023-04-28T08:56:33.028Z,65.94
2023-04-28T08:59:07.001Z,54.83
2023-04-28T09:01:40.087Z,55.42
2023-04-28T09:04:14.679Z,63.00
2023-04-28T09:06:49.841Z,54.85
2023-04-28T09:09:25.312Z,61.09
2023-04-28T09:11:59.706Z,53.44
2023-04-28T09:14:34.875Z,52.61
2023-04-28T09:17:13.084Z,52.57
2023-04-28T09:19:46.494Z,55.30
2023-04-28T09:22:29.272Z,53.93
2023-04-28T09:25:11.910Z,64.43
2023-04-28T09:27:46.974Z,55.01
2023-04-28T09:30:20.365Z,56.25
2023-04-28T09:33:05.213Z,51.81
2023-04-28T09:35:42.309Z,55.56
2023-04-28T09:38:16.547Z,59.01
2023-04-28T09:40:53.517Z,53.99
2023-04-28T09:43:30.747Z,54.48
2023-04-28T09:46:04.620Z,52.42
2023-04-28T09:48:38.858Z,61.11
2023-04-28T09:51:13.180Z,50.15
2023-04-28T09:53:47.716Z,54.05
2023-04-28T09:56:22.216Z,50.71
2023-04-28T09:58:55.302Z,59.13
2023-04-28T10:01:28.817Z,58.62
2023-04-28T10:04:12.104Z,55.62
2023-04-28T10:06:45.791Z,55.91
2023-04-28T10:09:26.523Z,57.76
2023-04-28T10:11:59.902Z,54.01
2023-04-28T10:14:33.427Z,49.79
2023-04-28T10:17:06.748Z,49.11
2023-04-28T10:19:39.604Z,55.93
2023-04-28T10:22:23.537Z,50.71
2023-04-28T10:25:09.876Z,49.01
2023-04-28T10:27:43.726Z,52.17
2023-04-28T10:30:27.554Z,55.36
2023-04-28T10:33:20.339Z,51.40
2023-04-28T10:35:53.489Z,48.47
2023-04-28T10:38:26.325Z,48.59
2023-04-28T10:41:02.838Z,50.32
2023-04-28T10:43:39.938Z,50.95
2023-04-28T10:46:13.538Z,47.57
2023-04-28T10:48:56.776Z,50.08
2023-04-28T10:51:31.922Z,48.22
2023-04-28T10:54:19.959Z,61.15
2023-04-28T10:57:12.113Z,54.76
2023-04-28T10:59:48.019Z,49.56
2023-04-28T11:02:47.099Z,56.65
2023-04-28T11:05:20.830Z,58.24
2023-04-28T11:08:12.515Z,48.85
2023-04-28T11:11:13.133Z,56.41
2023-04-28T11:13:47.167Z,50.16
2023-04-28T11:16:24.164Z,55.64
2023-04-28T11:18:59.263Z,51.83
2023-04-28T11:21:33.089Z,52.93
2023-04-28T11:24:10.653Z,50.39
2023-04-28T11:26:43.784Z,54.74
2023-04-28T11:29:17.321Z,54.04
2023-04-28T11:31:52.788Z,50.82
2023-04-28T11:34:26.008Z,58.47
2023-04-28T11:36:59.528Z,55.36
2023-04-28T11:39:33.505Z,61.17
2023-04-28T11:42:11.129Z,61.88
2023-04-28T11:44:50.668Z,49.96
2023-04-28T11:47:33.715Z,52.14
2023-04-28T11:50:08.325Z,51.94
2023-04-28T11:52:50.830Z,49.09
2023-04-28T11:55:25.533Z,50.02
2023-04-28T11:58:14.233Z,58.58
2023-04-28T12:00:47.317Z,49.98
2023-04-28T12:03:21.687Z,49.73
2023-04-28T12:05:54.901Z,48.33
2023-04-28T12:08:29.267Z,58.44
2023-04-28T12:11:08.592Z,50.05
2023-04-28T12:13:41.462Z,49.97
2023-04-28T12:16:14.548Z,56.13
2023-04-28T12:19:00.771Z,48.33
2023-04-28T12:21:33.762Z,54.42
2023-04-28T12:24:19.736Z,50.68
2023-04-28T12:26:53.214Z,49.31
2023-04-28T12:29:42.183Z,49.69
2023-04-28T12:32:16.080Z,49.07
2023-04-28T12:34:51.414Z,50.69
2023-04-28T12:37:24.748Z,57.06
2023-04-28T12:39:57.732Z,53.57
2023-04-28T12:42:30.729Z,55.55
2023-04-28T12:45:03.541Z,53.70
2023-04-28T12:47:36.604Z,59.44
2023-04-28T12:50:11.376Z,48.22
2023-04-28T12:52:44.526Z,53.06
2023-04-28T12:55:17.768Z,55.64
2023-04-28T12:57:50.566Z,50.18
2023-04-28T13:00:25.160Z,52.83
2023-04-28T13:02:58.237Z,51.61
2023-04-28T13:05:35.040Z,52.39
2023-04-28T13:08:08.342Z,59.52
2023-04-28T13:10:41.640Z,49.95
2023-04-28T13:13:14.507Z,53.45
2023-04-28T13:15:47.608Z,60.80
2023-04-28T13:18:20.575Z,53.14
2023-04-28T13:20:55.134Z,55.83
2023-04-28T13:23:28.428Z,57.48
2023-04-28T13:26:01.431Z,59.90
2023-04-28T13:28:34.508Z,54.50
2023-04-28T13:31:07.314Z,51.04
2023-04-28T13:33:40.204Z,56.10
2023-04-28T13:36:14.416Z,61.58
2023-04-28T13:38:49.101Z,50.82
2023-04-28T13:41:22.363Z,55.02
2023-04-28T13:43:55.772Z,51.14
2023-04-28T13:46:29.035Z,51.35
2023-04-28T13:49:01.903Z,59.03
2023-04-28T13:51:36.786Z,51.88
2023-04-28T13:54:11.672Z,62.06
2023-04-28T13:56:44.904Z,52.29
2023-04-28T13:59:17.913Z,52.69
2023-04-28T14:01:51.851Z,54.98
2023-04-28T14:04:25.246Z,50.53
2023-04-28T14:07:00.052Z,50.05
2023-04-28T14:09:33.416Z,54.96
2023-04-28T14:12:06.342Z,59.09
2023-04-28T14:14:40.440Z,50.79
2023-04-28T14:17:13.725Z,60.13
2023-04-28T14:19:46.855Z,50.32
2023-04-28T14:22:21.436Z,51.46
2023-04-28T14:24:54.589Z,52.87
2023-04-28T14:27:28.236Z,55.61
2023-04-28T14:30:01.157Z,54.45
2023-04-28T14:32:34.265Z,50.14
2023-04-28T14:35:07.423Z,53.85
2023-04-28T14:37:42.874Z,50.85
2023-04-28T14:40:16.618Z,48.01
2023-04-28T14:42:49.389Z,53.57
2023-04-28T14:45:22.782Z,56.47
2023-04-28T14:47:55.717Z,59.94
2023-04-28T14:50:28.469Z,57.50
2023-04-28T14:53:05.629Z,47.53
2023-04-28T14:55:38.868Z,53.48
2023-04-28T14:58:12.314Z,55.54
2023-04-28T15:00:45.236Z,51.64
2023-04-28T15:03:19.386Z,55.27
2023-04-28T15:05:53.657Z,48.37
2023-04-28T15:08:29.943Z,52.44
2023-04-28T15:11:02.934Z,56.56
2023-04-28T15:13:36.055Z,48.84
2023-04-28T15:16:09.170Z,52.80
2023-04-28T15:18:42.447Z,54.83
2023-04-28T15:21:15.502Z,55.59
2023-04-28T15:23:49.996Z,52.30
2023-04-28T15:26:23.623Z,49.68
2023-04-28T15:28:56.632Z,56.00
2023-04-28T15:31:29.446Z,48.67
2023-04-28T15:34:02.388Z,55.35
2023-04-28T15:36:38.190Z,57.78
2023-04-28T15:39:12.795Z,57.58
2023-04-28T15:41:45.617Z,51.40
2023-04-28T15:44:18.561Z,52.87
2023-04-28T15:46:52.888Z,57.90
2023-04-28T15:49:26.076Z,57.86
2023-04-28T15:51:59.600Z,48.47
2023-04-28T15:54:34.031Z,48.95
2023-04-28T15:57:07.000Z,56.52
2023-04-28T15:59:41.141Z,48.81
2023-04-28T16:02:14.581Z,57.36
2023-04-28T16:04:49.065Z,52.11
2023-04-28T16:07:22.659Z,49.46
2023-04-28T16:09:56.922Z,55.33
2023-04-28T16:12:30.364Z,51.98
2023-04-28T16:15:03.512Z,49.70
2023-04-28T16:17:38.258Z,53.13
2023-04-28T16:20:12.850Z,53.15
2023-04-28T16:22:46.870Z,57.50
2023-04-28T16:25:21.214Z,56.45
2023-04-28T16:27:54.312Z,49.76
2023-04-28T16:30:27.312Z,50.57
2023-04-28T16:33:00.975Z,51.21
2023-04-28T16:35:34.155Z,48.92
2023-04-28T16:38:07.301Z,56.54
2023-04-28T16:40:41.471Z,53.86
2023-04-28T16:43:14.328Z,54.34
2023-04-28T16:45:47.154Z,50.77
2023-04-28T16:48:21.644Z,52.21
2023-04-28T16:50:54.926Z,52.68
2023-04-28T16:53:27.891Z,57.90
2023-04-28T16:56:02.079Z,57.09
2023-04-28T16:58:35.369Z,51.82
2023-04-28T17:01:08.897Z,51.85
2023-04-28T17:03:42.354Z,55.46
2023-04-28T17:06:15.749Z,53.80
2023-04-28T17:08:48.925Z,59.42
2023-04-28T17:11:23.082Z,54.03
2023-04-28T17:13:55.957Z,62.07
2023-04-28T17:16:31.890Z,53.11
2023-04-28T17:19:05.515Z,56.23
2023-04-28T17:21:38.983Z,56.86
2023-04-28T17:24:11.994Z,60.17
2023-04-28T17:26:46.252Z,58.66
2023-04-28T17:29:19.130Z,57.15
2023-04-28T17:31:52.196Z,54.12
2023-04-28T17:34:25.138Z,53.79
2023-04-28T17:36:58.317Z,60.23
2023-04-28T17:39:31.784Z,58.08
2023-04-28T17:42:06.630Z,57.46
2023-04-28T17:44:40.528Z,54.88
2023-04-28T17:47:15.123Z,53.85
2023-04-28T17:49:49.496Z,55.28
2023-04-28T17:52:22.569Z,57.55
2023-04-28T17:54:55.525Z,55.97
2023-04-28T17:57:29.682Z,58.30
2023-04-28T18:00:03.398Z,55.89
2023-04-28T18:02:36.243Z,57.00
2023-04-28T18:05:09.512Z,58.46
2023-04-28T18:07:42.853Z,58.99
2023-04-28T18:10:16.648Z,58.32
2023-04-28T18:12:53.008Z,58.53
2023-04-28T18:15:26.603Z,58.76
2023-04-28T18:17:59.849Z,60.21
2023-04-28T18:20:33.367Z,61.51
2023-04-28T18:23:07.730Z,60.90
2023-04-28T18:25:41.116Z,60.22
2023-04-28T18:28:15.454Z,60.43
2023-04-28T18:30:47.232Z,63.04
2023-04-28T18:33:23.011Z,62.70
2023-04-28T18:35:59.823Z,61.94
2023-04-28T18:38:35.170Z,62.75
2023-04-28T18:41:14.406Z,62.64
2023-04-28T18:43:49.500Z,63.16
2023-04-28T18:46:22.882Z,63.32
2023-04-28T18:48:55.864Z,63.73
2023-04-28T18:51:28.768Z,63.10
2023-04-28T18:54:04.665Z,63.57
2023-04-28T18:56:37.918Z,65.38
2023-04-28T18:59:12.424Z,64.85
2023-04-28T19:01:45.709Z,63.96
2023-04-28T19:04:19.123Z,66.17
2023-04-28T19:06:52.059Z,64.14
2023-04-28T19:09:25.034Z,68.55
2023-04-28T19:11:57.889Z,65.74
2023-04-28T19:14:33.330Z,64.07
2023-04-28T19:17:06.821Z,62.46
2023-04-28T19:19:39.920Z,69.08
2023-04-28T19:22:27.911Z,68.55
2023-04-28T19:25:01.324Z,64.59
2023-04-28T19:27:35.567Z,64.61
2023-04-28T19:30:10.988Z,67.05
2023-04-28T19:32:44.100Z,66.50
2023-04-28T19:35:16.951Z,69.57
2023-04-28T19:37:50.582Z,64.71
2023-04-28T19:40:26.347Z,67.55
2023-04-28T19:43:00.282Z,63.94
2023-04-28T19:45:36.245Z,69.26
2023-04-28T19:48:09.449Z,66.29
2023-04-28T19:50:42.501Z,65.54
2023-04-28T19:53:15.926Z,66.79
2023-04-28T19:55:48.905Z,66.31
2023-04-28T19:58:22.467Z,69.22
2023-04-28T20:00:56.894Z,70.43
2023-04-28T20:03:30.027Z,69.87
2023-04-28T20:06:03.904Z,71.33
2023-04-28T20:08:37.159Z,71.18
2023-04-28T20:11:10.413Z,73.93
2023-04-28T20:13:43.506Z,72.28
2023-04-28T20:16:20.305Z,69.17
2023-04-28T20:18:53.116Z,73.11
2023-04-28T20:21:27.622Z,73.06
2023-04-28T20:24:00.892Z,71.28
2023-04-28T20:26:33.652Z,73.91
2023-04-28T20:29:08.386Z,75.05
2023-04-28T20:31:43.025Z,75.39
2023-04-28T20:34:16.156Z,76.94
2023-04-28T20:36:49.439Z,75.45
2023-04-28T20:39:22.722Z,74.74
2023-04-28T20:41:56.122Z,75.10
2023-04-28T20:44:29.065Z,74.65
2023-04-28T20:47:03.651Z,77.54
2023-04-28T20:49:36.776Z,75.95
2023-04-28T20:52:09.849Z,76.69
2023-04-28T20:54:43.855Z,77.02
2023-04-28T20:57:16.645Z,77.22
2023-04-28T20:59:49.529Z,75.99
2023-04-28T21:02:23.966Z,78.53
2023-04-28T21:04:57.524Z,79.51
2023-04-28T21:07:30.671Z,80.55
2023-04-28T21:10:04.202Z,80.02
2023-04-28T21:12:37.477Z,79.52
2023-04-28T21:15:10.993Z,79.86
2023-04-28T21:17:45.346Z,81.37
2023-04-28T21:20:18.217Z,79.66
2023-04-28T21:22:51.499Z,80.78
2023-04-28T21:25:25.253Z,80.34
2023-04-28T21:28:00.236Z,80.42
2023-04-28T21:30:34.428Z,79.30
2023-04-28T21:33:08.770Z,82.33
2023-04-28T21:35:41.708Z,78.57
2023-04-28T21:38:15.620Z,79.21
2023-04-28T21:40:49.251Z,80.29
2023-04-28T21:43:22.881Z,80.72
2023-04-28T21:45:55.854Z,83.56
2023-04-28T21:48:30.236Z,79.29
2023-04-28T21:51:03.306Z,78.68
2023-04-28T21:53:36.324Z,80.08
2023-04-28T21:56:09.571Z,81.81
2023-04-28T21:58:42.496Z,82.29
2023-04-28T22:01:18.159Z,83.10
2023-04-28T22:03:52.723Z,82.61
2023-04-28T22:06:26.301Z,83.57
2023-04-28T22:08:59.881Z,83.58
2023-04-28T22:11:33.401Z,83.02
2023-04-28T22:14:06.503Z,83.87
2023-04-28T22:16:39.380Z,83.34
2023-04-28T22:19:13.727Z,83.40
2023-04-28T22:21:46.729Z,83.34
2023-04-28T22:24:19.941Z,83.69
2023-04-28T22:26:53.045Z,83.94
2023-04-28T22:29:26.792Z,84.65
2023-04-28T22:31:59.822Z,85.49
2023-04-28T22:34:34.007Z,84.03
2023-04-28T22:37:07.118Z,84.37
2023-04-28T22:39:40.302Z,85.15
2023-04-28T22:42:13.610Z,84.44
2023-04-28T22:44:46.510Z,83.87
2023-04-28T22:47:19.408Z,82.84
2023-04-28T22:49:53.584Z,82.35
2023-04-28T22:52:26.578Z,83.60
2023-04-28T22:54:59.654Z,83.13
2023-04-28T22:57:32.687Z,83.28
2023-04-28T23:00:06.051Z,85.11
2023-04-28T23:02:39.035Z,84.47
2023-04-28T23:05:13.822Z,84.78
2023-04-28T23:07:46.840Z,84.41
2023-04-28T23:10:20.151Z,85.30
2023-04-28T23:12:53.072Z,85.46
2023-04-28T23:15:26.269Z,84.61
2023-04-28T23:17:59.382Z,82.75
2023-04-28T23:20:35.289Z,85.67
2023-04-28T23:23:08.067Z,84.69
2023-04-28T23:25:42.025Z,85.25
2023-04-28T23:28:15.234Z,84.67
2023-04-28T23:30:48.438Z,83.30
2023-04-28T23:33:21.283Z,84.94
2023-04-28T23:35:55.859Z,84.16
2023-04-28T23:38:29.044Z,83.40
2023-04-28T23:41:02.245Z,84.14
2023-04-28T23:43:35.116Z,84.54
2023-04-28T23:46:08.086Z,83.75
2023-04-28T23:48:41.019Z,84.89
2023-04-28T23:51:15.185Z,84.90
2023-04-28T23:53:48.260Z,85.01
2023-04-28T23:56:21.688Z,85.34
2023-04-28T23:58:54.886Z,85.44
